PGT1111 UKBB-UKOO
Flight info
| Callsign | PGT1111 |
|---|---|
| Flight time | N/A |
| Altitude | 35000 |
| Route | BASOR M856 GOBLI L919 ODSAN |
| Aircraft | A20N/M-SDE2E3FGHIRWXY/LB1 |
Departure
| Time | 2026-05-07 18:34 |
|---|---|
| Airport | Boryspil International Airport (UKBB) |
Arrival
| Time | N/A |
|---|---|
| Airport | Odesa International Airport (UKOO) |
| Time | Latitude | Longitude | Altitude | Speed | Heading |
|---|---|---|---|---|---|
| 2026-05-07 17:11 | 50.34903 | 30.89839 | 430 ft | 0 kts | 274° |
| 2026-05-07 18:18 | 50.34902 | 30.89851 | 420 ft | 1 kts | 274° |
| 2026-05-07 18:19 | 50.34902 | 30.89863 | 423 ft | 1 kts | 274° |
| 2026-05-07 18:19 | 50.34901 | 30.89875 | 429 ft | 1 kts | 274° |
| 2026-05-07 18:19 | 50.34900 | 30.89887 | 431 ft | 1 kts | 274° |
| 2026-05-07 18:19 | 50.34900 | 30.89899 | 430 ft | 1 kts | 274° |
| 2026-05-07 18:20 | 50.34899 | 30.89911 | 430 ft | 1 kts | 274° |
| 2026-05-07 18:20 | 50.34899 | 30.89923 | 427 ft | 1 kts | 274° |
| 2026-05-07 18:20 | 50.34898 | 30.89934 | 428 ft | 1 kts | 274° |
| 2026-05-07 18:20 | 50.34898 | 30.89946 | 426 ft | 1 kts | 274° |
| 2026-05-07 18:21 | 50.34897 | 30.89958 | 423 ft | 1 kts | 273° |
| 2026-05-07 18:21 | 50.34897 | 30.89964 | 423 ft | 0 kts | 273° |
| 2026-05-07 18:21 | 50.34897 | 30.89966 | 423 ft | 1 kts | 273° |
| 2026-05-07 18:21 | 50.34897 | 30.89978 | 423 ft | 1 kts | 273° |
| 2026-05-07 18:22 | 50.34896 | 30.89990 | 424 ft | 1 kts | 273° |
| 2026-05-07 18:22 | 50.34896 | 30.89997 | 424 ft | 1 kts | 273° |
| 2026-05-07 18:22 | 50.34895 | 30.90013 | 426 ft | 1 kts | 273° |
| 2026-05-07 18:22 | 50.34895 | 30.90025 | 422 ft | 1 kts | 273° |
| 2026-05-07 18:23 | 50.34894 | 30.90036 | 421 ft | 1 kts | 273° |
| 2026-05-07 18:23 | 50.34894 | 30.90048 | 427 ft | 1 kts | 273° |
| 2026-05-07 18:23 | 50.34894 | 30.90060 | 424 ft | 1 kts | 273° |
| 2026-05-07 18:23 | 50.34893 | 30.90072 | 421 ft | 1 kts | 271° |
| 2026-05-07 18:24 | 50.34893 | 30.90083 | 421 ft | 1 kts | 257° |
| 2026-05-07 18:24 | 50.34895 | 30.90095 | 427 ft | 3 kts | 241° |
| 2026-05-07 18:24 | 50.34910 | 30.90121 | 417 ft | 1 kts | 207° |
| 2026-05-07 18:24 | 50.34914 | 30.90125 | 417 ft | 0 kts | 201° |
| 2026-05-07 18:26 | 50.34891 | 30.90118 | 418 ft | 0 kts | 185° |
| 2026-05-07 18:28 | 50.34864 | 30.90118 | 421 ft | 10 kts | 167° |
| 2026-05-07 18:28 | 50.34843 | 30.90205 | 431 ft | 8 kts | 105° |
| 2026-05-07 18:28 | 50.34804 | 30.90250 | 422 ft | 3 kts | 109° |
| 2026-05-07 18:29 | 50.34807 | 30.90259 | 426 ft | 2 kts | 72° |
| 2026-05-07 18:29 | 50.34812 | 30.90267 | 425 ft | 1 kts | 42° |
| 2026-05-07 18:29 | 50.34949 | 30.90241 | 427 ft | 37 kts | 347° |
| 2026-05-07 18:29 | 50.35230 | 30.90262 | 428 ft | 43 kts | 4° |
| 2026-05-07 18:30 | 50.35489 | 30.90279 | 426 ft | 38 kts | 3° |
| 2026-05-07 18:30 | 50.35760 | 30.90296 | 425 ft | 39 kts | 2° |
| 2026-05-07 18:30 | 50.35982 | 30.90307 | 425 ft | 32 kts | 2° |
| 2026-05-07 18:30 | 50.36065 | 30.90552 | 424 ft | 28 kts | 123° |
| 2026-05-07 18:31 | 50.35901 | 30.90610 | 417 ft | 24 kts | 186° |
| 2026-05-07 18:31 | 50.35777 | 30.90601 | 422 ft | 0 kts | 181° |
| 2026-05-07 18:33 | 50.35770 | 30.90601 | 417 ft | 5 kts | 181° |
| 2026-05-07 18:34 | 50.35468 | 30.90588 | 422 ft | 92 kts | 182° |
| 2026-05-07 18:34 | 50.34554 | 30.90523 | 420 ft | 167 kts | 183° |
| 2026-05-07 18:34 | 50.33233 | 30.90407 | 750 ft | 202 kts | 184° |
| 2026-05-07 18:34 | 50.31787 | 30.90240 | 1543 ft | 211 kts | 186° |
| 2026-05-07 18:35 | 50.30358 | 30.90034 | 2979 ft | 208 kts | 187° |
| 2026-05-07 18:35 | 50.28853 | 30.89840 | 3947 ft | 226 kts | 185° |
| 2026-05-07 18:35 | 50.27245 | 30.89731 | 4951 ft | 242 kts | 184° |
| 2026-05-07 18:35 | 50.25485 | 30.89653 | 5875 ft | 258 kts | 182° |
| 2026-05-07 18:36 | 50.23667 | 30.89583 | 7017 ft | 264 kts | 182° |
| 2026-05-07 18:36 | 50.21832 | 30.89509 | 8041 ft | 271 kts | 182° |
| 2026-05-07 18:36 | 50.19919 | 30.89425 | 9043 ft | 278 kts | 182° |
| 2026-05-07 18:36 | 50.17973 | 30.89327 | 10044 ft | 283 kts | 185° |
| 2026-05-07 18:37 | 50.15993 | 30.88748 | 10701 ft | 300 kts | 197° |
| 2026-05-07 18:37 | 50.13938 | 30.87693 | 11119 ft | 323 kts | 200° |
| 2026-05-07 18:37 | 50.11761 | 30.86509 | 11748 ft | 336 kts | 199° |
| 2026-05-07 18:37 | 50.09535 | 30.85368 | 12717 ft | 338 kts | 198° |
| 2026-05-07 18:38 | 50.07273 | 30.84282 | 13660 ft | 342 kts | 197° |
| 2026-05-07 18:38 | 50.05003 | 30.83278 | 14491 ft | 346 kts | 194° |
| 2026-05-07 18:38 | 50.02622 | 30.82564 | 15276 ft | 351 kts | 191° |
| 2026-05-07 18:38 | 50.00200 | 30.81879 | 16074 ft | 355 kts | 191° |
| 2026-05-07 18:39 | 49.97752 | 30.81185 | 16851 ft | 360 kts | 191° |
| 2026-05-07 18:39 | 49.95270 | 30.80479 | 17603 ft | 365 kts | 191° |
| 2026-05-07 18:39 | 49.92755 | 30.79761 | 18351 ft | 370 kts | 191° |
| 2026-05-07 18:39 | 49.90205 | 30.79032 | 19001 ft | 374 kts | 191° |
| 2026-05-07 18:40 | 49.87632 | 30.78296 | 19641 ft | 379 kts | 191° |
| 2026-05-07 18:40 | 49.85023 | 30.77551 | 20297 ft | 383 kts | 191° |
| 2026-05-07 18:40 | 49.82383 | 30.76797 | 20934 ft | 388 kts | 191° |
| 2026-05-07 18:40 | 49.79755 | 30.76048 | 21583 ft | 392 kts | 191° |
| 2026-05-07 18:41 | 49.77059 | 30.75280 | 22194 ft | 397 kts | 191° |
| 2026-05-07 18:41 | 49.74332 | 30.74505 | 22837 ft | 400 kts | 191° |
| 2026-05-07 18:41 | 49.71576 | 30.73722 | 23428 ft | 405 kts | 191° |
| 2026-05-07 18:41 | 49.68782 | 30.72929 | 23920 ft | 411 kts | 191° |
| 2026-05-07 18:42 | 49.65955 | 30.72127 | 24412 ft | 415 kts | 191° |
| 2026-05-07 18:42 | 49.63105 | 30.71321 | 24928 ft | 418 kts | 191° |
| 2026-05-07 18:42 | 49.60230 | 30.70508 | 25423 ft | 422 kts | 191° |
| 2026-05-07 18:42 | 49.57325 | 30.69693 | 25908 ft | 426 kts | 190° |
| 2026-05-07 18:43 | 49.54407 | 30.69202 | 26347 ft | 431 kts | 183° |
| 2026-05-07 18:43 | 49.51392 | 30.69125 | 26794 ft | 435 kts | 181° |
| 2026-05-07 18:43 | 49.48362 | 30.69075 | 27298 ft | 437 kts | 181° |
| 2026-05-07 18:43 | 49.45315 | 30.69019 | 27747 ft | 440 kts | 181° |
| 2026-05-07 18:44 | 49.42237 | 30.68958 | 28144 ft | 444 kts | 181° |
| 2026-05-07 18:44 | 49.39147 | 30.68893 | 28630 ft | 445 kts | 181° |
| 2026-05-07 18:44 | 49.36036 | 30.68827 | 29025 ft | 449 kts | 181° |
| 2026-05-07 18:44 | 49.32901 | 30.68760 | 29361 ft | 453 kts | 181° |
| 2026-05-07 18:45 | 49.29780 | 30.68694 | 29768 ft | 455 kts | 181° |
| 2026-05-07 18:45 | 49.26605 | 30.68626 | 30143 ft | 458 kts | 181° |
| 2026-05-07 18:45 | 49.23413 | 30.68558 | 30491 ft | 460 kts | 181° |
| 2026-05-07 18:45 | 49.20192 | 30.68489 | 30753 ft | 465 kts | 181° |
| 2026-05-07 18:46 | 49.16941 | 30.68419 | 31084 ft | 468 kts | 181° |
| 2026-05-07 18:46 | 49.13691 | 30.68351 | 31516 ft | 467 kts | 181° |
| 2026-05-07 18:46 | 49.10442 | 30.68283 | 31988 ft | 466 kts | 181° |
| 2026-05-07 18:46 | 49.07205 | 30.68215 | 32449 ft | 465 kts | 181° |
| 2026-05-07 18:47 | 49.03973 | 30.68146 | 32913 ft | 464 kts | 181° |
| 2026-05-07 18:47 | 49.00792 | 30.68080 | 33356 ft | 463 kts | 181° |
| 2026-05-07 18:47 | 48.97580 | 30.68012 | 33817 ft | 461 kts | 182° |
| 2026-05-07 18:47 | 48.94371 | 30.67945 | 34210 ft | 460 kts | 182° |
| 2026-05-07 18:48 | 48.91174 | 30.67877 | 34562 ft | 459 kts | 182° |
| 2026-05-07 18:48 | 48.87979 | 30.67810 | 34907 ft | 459 kts | 182° |
| 2026-05-07 18:48 | 48.84788 | 30.67743 | 35047 ft | 458 kts | 182° |
| 2026-05-07 18:49 | 48.78436 | 30.67609 | 35063 ft | 457 kts | 182° |
| 2026-05-07 18:49 | 48.72096 | 30.67476 | 35070 ft | 459 kts | 182° |
| 2026-05-07 18:50 | 48.65715 | 30.67343 | 35071 ft | 458 kts | 182° |
| 2026-05-07 18:50 | 48.59331 | 30.67210 | 35073 ft | 458 kts | 182° |
| 2026-05-07 18:51 | 48.52952 | 30.67077 | 35070 ft | 459 kts | 182° |
| 2026-05-07 18:51 | 48.46616 | 30.66947 | 35081 ft | 458 kts | 182° |
| 2026-05-07 18:52 | 48.40234 | 30.66814 | 35082 ft | 459 kts | 182° |
| 2026-05-07 18:52 | 48.33846 | 30.66682 | 35079 ft | 459 kts | 182° |
| 2026-05-07 18:53 | 48.27458 | 30.66551 | 35078 ft | 460 kts | 182° |
| 2026-05-07 18:53 | 48.21060 | 30.66420 | 35083 ft | 460 kts | 182° |
| 2026-05-07 18:54 | 48.14706 | 30.66290 | 35092 ft | 460 kts | 182° |
| 2026-05-07 18:54 | 48.08307 | 30.65982 | 35096 ft | 459 kts | 187° |
| 2026-05-07 18:55 | 48.02007 | 30.64484 | 35093 ft | 459 kts | 191° |
| 2026-05-07 18:55 | 47.95711 | 30.62880 | 35102 ft | 459 kts | 191° |
| 2026-05-07 18:56 | 47.89411 | 30.61295 | 35107 ft | 459 kts | 191° |
| 2026-05-07 18:56 | 47.83149 | 30.59729 | 35103 ft | 459 kts | 191° |
| 2026-05-07 18:56 | 47.80006 | 30.58945 | 34896 ft | 458 kts | 191° |
| 2026-05-07 18:57 | 47.76864 | 30.58162 | 34244 ft | 460 kts | 191° |
| 2026-05-07 18:57 | 47.73688 | 30.57370 | 33217 ft | 465 kts | 191° |
| 2026-05-07 18:57 | 47.70472 | 30.56567 | 32082 ft | 472 kts | 191° |
| 2026-05-07 18:57 | 47.67216 | 30.55756 | 30944 ft | 478 kts | 191° |
| 2026-05-07 18:58 | 47.63928 | 30.54939 | 29847 ft | 480 kts | 190° |
| 2026-05-07 18:58 | 47.60632 | 30.54122 | 28822 ft | 479 kts | 190° |
| 2026-05-07 18:58 | 47.57364 | 30.53315 | 28031 ft | 473 kts | 190° |
| 2026-05-07 18:58 | 47.54179 | 30.52529 | 27262 ft | 468 kts | 190° |
| 2026-05-07 18:59 | 47.50988 | 30.51742 | 26500 ft | 462 kts | 190° |
| 2026-05-07 18:59 | 47.47834 | 30.50964 | 25752 ft | 457 kts | 190° |
| 2026-05-07 18:59 | 47.44708 | 30.50194 | 25030 ft | 453 kts | 190° |
| 2026-05-07 18:59 | 47.41620 | 30.49434 | 24341 ft | 448 kts | 190° |
| 2026-05-07 19:00 | 47.38576 | 30.48686 | 23916 ft | 437 kts | 190° |
| 2026-05-07 19:00 | 47.35602 | 30.47955 | 23069 ft | 434 kts | 190° |
| 2026-05-07 19:00 | 47.32607 | 30.47220 | 22057 ft | 437 kts | 190° |
| 2026-05-07 19:00 | 47.29625 | 30.46488 | 21400 ft | 430 kts | 189° |
| 2026-05-07 19:01 | 47.26688 | 30.45769 | 20643 ft | 426 kts | 189° |
| 2026-05-07 19:01 | 47.23830 | 30.45070 | 20088 ft | 418 kts | 189° |
| 2026-05-07 19:01 | 47.20979 | 30.44373 | 19375 ft | 414 kts | 189° |
| 2026-05-07 19:01 | 47.18142 | 30.43791 | 18712 ft | 409 kts | 182° |
| 2026-05-07 19:02 | 47.15336 | 30.44137 | 18023 ft | 402 kts | 166° |
| 2026-05-07 19:02 | 47.12741 | 30.45563 | 17283 ft | 397 kts | 150° |
| 2026-05-07 19:02 | 47.10471 | 30.47815 | 16557 ft | 392 kts | 142° |
| 2026-05-07 19:02 | 47.08365 | 30.50287 | 15995 ft | 384 kts | 140° |
| 2026-05-07 19:03 | 47.06290 | 30.52714 | 15451 ft | 378 kts | 141° |
| 2026-05-07 19:03 | 47.04264 | 30.54980 | 15200 ft | 364 kts | 143° |
| 2026-05-07 19:03 | 47.02253 | 30.57144 | 15133 ft | 359 kts | 143° |
| 2026-05-07 19:03 | 47.00208 | 30.59297 | 15127 ft | 363 kts | 144° |
| 2026-05-07 19:04 | 46.98155 | 30.61435 | 15110 ft | 361 kts | 144° |
| 2026-05-07 19:04 | 46.96113 | 30.63558 | 14810 ft | 360 kts | 143° |
| 2026-05-07 19:04 | 46.94059 | 30.65691 | 14131 ft | 364 kts | 144° |
| 2026-05-07 19:04 | 46.91969 | 30.67862 | 13154 ft | 371 kts | 144° |
| 2026-05-07 19:05 | 46.89865 | 30.70045 | 12461 ft | 368 kts | 144° |
| 2026-05-07 19:05 | 46.87788 | 30.72196 | 11782 ft | 365 kts | 144° |
| 2026-05-07 19:05 | 46.85728 | 30.74330 | 11172 ft | 360 kts | 144° |
| 2026-05-07 19:05 | 46.83720 | 30.76406 | 10533 ft | 358 kts | 144° |
| 2026-05-07 19:06 | 46.81725 | 30.78465 | 10291 ft | 343 kts | 143° |
| 2026-05-07 19:06 | 46.77952 | 30.82186 | 9985 ft | 313 kts | 150° |
| 2026-05-07 19:06 | 46.76006 | 30.83445 | 9861 ft | 299 kts | 159° |
| 2026-05-07 19:07 | 46.74044 | 30.84308 | 9577 ft | 291 kts | 162° |
| 2026-05-07 19:07 | 46.72110 | 30.85139 | 9154 ft | 289 kts | 162° |
| 2026-05-07 19:07 | 46.70189 | 30.85965 | 8739 ft | 286 kts | 165° |
| 2026-05-07 19:07 | 46.68220 | 30.86068 | 8398 ft | 283 kts | 191° |
| 2026-05-07 19:08 | 46.66505 | 30.84914 | 8283 ft | 272 kts | 218° |
| 2026-05-07 19:08 | 46.65375 | 30.82805 | 8167 ft | 261 kts | 246° |
| 2026-05-07 19:08 | 46.64853 | 30.80310 | 7908 ft | 257 kts | 257° |
| 2026-05-07 19:08 | 46.64899 | 30.77740 | 7574 ft | 256 kts | 287° |
| 2026-05-07 19:09 | 46.65792 | 30.75540 | 7215 ft | 255 kts | 316° |
| 2026-05-07 19:09 | 46.67305 | 30.74245 | 6868 ft | 254 kts | 341° |
| 2026-05-07 19:09 | 46.69007 | 30.73533 | 6478 ft | 256 kts | 346° |
| 2026-05-07 19:09 | 46.70728 | 30.72907 | 6161 ft | 254 kts | 346° |
| 2026-05-07 19:10 | 46.72418 | 30.72245 | 5784 ft | 255 kts | 339° |
| 2026-05-07 19:10 | 46.73868 | 30.70825 | 5457 ft | 250 kts | 309° |
| 2026-05-07 19:10 | 46.74627 | 30.68619 | 5168 ft | 244 kts | 279° |
| 2026-05-07 19:10 | 46.74547 | 30.66202 | 4838 ft | 238 kts | 252° |
| 2026-05-07 19:11 | 46.74002 | 30.63946 | 4531 ft | 235 kts | 246° |
| 2026-05-07 19:11 | 46.73381 | 30.61742 | 4217 ft | 234 kts | 246° |
| 2026-05-07 19:11 | 46.72799 | 30.59530 | 3931 ft | 233 kts | 248° |
| 2026-05-07 19:11 | 46.72094 | 30.57471 | 3723 ft | 223 kts | 226° |
| 2026-05-07 19:12 | 46.70819 | 30.56265 | 3563 ft | 222 kts | 199° |
| 2026-05-07 19:12 | 46.69351 | 30.55565 | 3566 ft | 222 kts | 197° |
| 2026-05-07 19:12 | 46.67901 | 30.54887 | 3561 ft | 221 kts | 197° |
| 2026-05-07 19:12 | 46.66434 | 30.54203 | 3559 ft | 221 kts | 197° |
| 2026-05-07 19:13 | 46.64972 | 30.53523 | 3556 ft | 220 kts | 197° |
| 2026-05-07 19:13 | 46.63513 | 30.52837 | 3563 ft | 221 kts | 197° |
| 2026-05-07 19:13 | 46.62055 | 30.52147 | 3569 ft | 221 kts | 197° |
| 2026-05-07 19:13 | 46.60591 | 30.51467 | 3461 ft | 221 kts | 197° |
| 2026-05-07 19:14 | 46.59123 | 30.50779 | 3139 ft | 222 kts | 197° |
| 2026-05-07 19:14 | 46.57672 | 30.50090 | 2991 ft | 215 kts | 197° |
| 2026-05-07 19:14 | 46.56244 | 30.49417 | 2977 ft | 220 kts | 197° |
| 2026-05-07 19:14 | 46.54826 | 30.48712 | 2971 ft | 217 kts | 206° |
| 2026-05-07 19:15 | 46.53732 | 30.47237 | 2982 ft | 221 kts | 238° |
| 2026-05-07 19:15 | 46.53369 | 30.45061 | 2983 ft | 229 kts | 270° |
| 2026-05-07 19:15 | 46.53882 | 30.42881 | 2982 ft | 234 kts | 303° |
| 2026-05-07 19:15 | 46.55153 | 30.41365 | 2974 ft | 243 kts | 334° |
| 2026-05-07 19:16 | 46.56732 | 30.40465 | 2973 ft | 244 kts | 337° |
| 2026-05-07 19:16 | 46.58315 | 30.39598 | 2973 ft | 243 kts | 337° |
| 2026-05-07 19:16 | 46.59893 | 30.38732 | 2973 ft | 243 kts | 337° |
| 2026-05-07 19:16 | 46.61476 | 30.37868 | 2974 ft | 244 kts | 337° |
| 2026-05-07 19:17 | 46.63046 | 30.37014 | 2974 ft | 244 kts | 337° |
| 2026-05-07 19:17 | 46.64633 | 30.36149 | 2967 ft | 244 kts | 337° |
| 2026-05-07 19:17 | 46.66220 | 30.35282 | 2965 ft | 244 kts | 337° |
| 2026-05-07 19:17 | 46.67802 | 30.34407 | 2968 ft | 243 kts | 337° |
| 2026-05-07 19:18 | 46.69378 | 30.33530 | 2971 ft | 243 kts | 337° |
| 2026-05-07 19:18 | 46.70960 | 30.32653 | 2971 ft | 243 kts | 337° |
| 2026-05-07 19:18 | 46.72542 | 30.31779 | 2970 ft | 243 kts | 337° |
| 2026-05-07 19:18 | 46.74122 | 30.30903 | 2971 ft | 243 kts | 337° |
| 2026-05-07 19:19 | 46.75701 | 30.30028 | 2965 ft | 243 kts | 337° |
| 2026-05-07 19:19 | 46.77284 | 30.29155 | 2966 ft | 243 kts | 337° |
| 2026-05-07 19:19 | 46.78849 | 30.28317 | 2966 ft | 244 kts | 340° |
| 2026-05-07 19:19 | 46.80358 | 30.27273 | 2966 ft | 238 kts | 316° |
| 2026-05-07 19:20 | 46.81294 | 30.25343 | 2967 ft | 233 kts | 284° |
| 2026-05-07 19:20 | 46.81385 | 30.23059 | 2964 ft | 224 kts | 252° |
| 2026-05-07 19:20 | 46.80632 | 30.21138 | 2967 ft | 218 kts | 219° |
| 2026-05-07 19:20 | 46.79299 | 30.20188 | 2963 ft | 216 kts | 187° |
| 2026-05-07 19:21 | 46.77836 | 30.20515 | 2969 ft | 217 kts | 154° |
| 2026-05-07 19:21 | 46.76737 | 30.22025 | 2970 ft | 225 kts | 122° |
| 2026-05-07 19:21 | 46.76238 | 30.24221 | 2967 ft | 232 kts | 107° |
| 2026-05-07 19:21 | 46.75857 | 30.26475 | 2967 ft | 231 kts | 107° |
| 2026-05-07 19:22 | 46.75412 | 30.28705 | 2958 ft | 226 kts | 120° |
| 2026-05-07 19:22 | 46.74389 | 30.30362 | 2972 ft | 220 kts | 152° |
| 2026-05-07 19:22 | 46.72945 | 30.30916 | 2972 ft | 216 kts | 183° |
| 2026-05-07 19:22 | 46.71446 | 30.30688 | 2970 ft | 217 kts | 187° |
| 2026-05-07 19:23 | 46.69954 | 30.30424 | 2967 ft | 216 kts | 187° |
| 2026-05-07 19:23 | 46.68460 | 30.30166 | 2969 ft | 216 kts | 187° |
| 2026-05-07 19:23 | 46.66968 | 30.29904 | 2968 ft | 217 kts | 187° |
| 2026-05-07 19:23 | 46.65493 | 30.29639 | 2964 ft | 217 kts | 187° |
| 2026-05-07 19:24 | 46.65029 | 30.29555 | 2969 ft | 217 kts | 187° |